Time;durP1;ratioP1;P1;durP2;ratioP2;P2;SDS_P1;SDS_P2;PMS_P1;PMS_P2;Temp;Humidity;BMP_temperature;BMP_pressure;BME280_temperature;BME280_humidity;BME280_pressure;Samples;Min_cycle;Max_cycle;Signal;HPM_P1;HPM_P2
2023/03/01 10:34:47;;;;;;;27.63;25.50;;;9.90;76.10;;;;;;6190650;22;1239831;-90
2023/03/01 10:37:20;;;;;;;27.50;25.20;;;13.50;62.20;;;;;;6189738;23;20227;-89
2023/03/01 10:40:05;;;;;;;28.87;26.30;;;13.00;61.50;;;;;;6190068;23;20424;-87
2023/03/01 10:42:34;;;;;;;26.70;24.30;;;12.40;62.70;;;;;;6190920;23;20440;-90
2023/03/01 10:45:27;;;;;;;28.23;25.90;;;11.90;64.10;;;;;;6190339;23;20409;-87
2023/03/01 10:48:05;;;;;;;28.57;26.17;;;12.50;64.00;;;;;;6189368;23;20419;-88
2023/03/01 10:50:33;;;;;;;28.10;25.70;;;12.60;62.40;;;;;;6189697;23;20409;-90
2023/03/01 10:53:02;;;;;;;27.57;25.20;;;12.50;63.20;;;;;;6189207;23;20401;-88
2023/03/01 10:55:34;;;;;;;24.87;22.83;;;12.90;62.30;;;;;;6189794;23;20409;-90
2023/03/01 10:58:09;;;;;;;29.00;26.40;;;12.90;61.20;;;;;;6188894;23;20416;-90
2023/03/01 11:00:48;;;;;;;29.30;26.83;;;12.80;62.00;;;;;;6188164;23;20459;-87
2023/03/01 11:03:17;;;;;;;26.43;24.03;;;12.80;62.10;;;;;;6188104;23;20459;-87
2023/03/01 11:05:58;;;;;;;26.77;24.30;;;12.60;61.20;;;;;;6187937;23;20893;-87
2023/03/01 11:08:40;;;;;;;26.53;24.43;;;12.70;62.20;;;;;;6164840;23;20441;-88
2023/03/01 11:11:17;;;;;;;27.17;25.07;;;13.30;60.70;;;;;;6158082;23;20897;-87
2023/03/01 11:13:56;;;;;;;27.73;25.40;;;14.10;60.00;;;;;;6158657;23;20420;-87
2023/03/01 11:16:33;;;;;;;26.97;24.67;;;14.10;58.90;;;;;;6158615;23;20416;-88
2023/03/01 11:19:17;;;;;;;26.30;24.23;;;14.60;58.80;;;;;;6159432;23;20449;-89
2023/03/01 11:21:53;;;;;;;28.03;25.60;;;15.40;57.10;;;;;;6157627;23;20424;-88
2023/03/01 11:24:22;;;;;;;27.73;25.33;;;15.40;57.00;;;;;;6158784;23;20512;-89
2023/03/01 11:26:54;;;;;;;26.40;24.10;;;14.30;56.40;;;;;;6158832;23;20416;-89
2023/03/01 11:29:29;;;;;;;28.77;26.10;;;13.90;57.70;;;;;;6160201;23;20422;-89
2023/03/01 11:32:00;;;;;;;27.33;24.83;;;13.50;57.70;;;;;;6158226;23;20520;-88
2023/03/01 11:34:39;;;;;;;26.20;24.00;;;13.70;58.60;;;;;;6153978;23;20445;-85
2023/03/01 11:37:16;;;;;;;26.57;24.27;;;14.00;57.20;;;;;;6151132;23;20448;-84
2023/03/01 11:39:48;;;;;;;27.90;25.50;;;13.70;57.50;;;;;;6151254;23;20410;-85
2023/03/01 11:42:20;;;;;;;28.80;26.40;;;13.70;58.10;;;;;;6151265;23;20449;-85
2023/03/01 11:44:51;;;;;;;29.13;26.67;;;14.10;58.00;;;;;;6151076;23;20410;-84
2023/03/01 11:47:33;;;;;;;27.80;25.20;;;15.20;55.80;;;;;;6150980;23;20476;-85
2023/03/01 11:50:17;;;;;;;27.77;25.37;;;15.20;55.60;;;;;;6151097;23;20418;-85
2023/03/01 11:52:55;;;;;;;27.83;25.53;;;15.00;55.60;;;;;;6151022;23;20422;-84
2023/03/01 11:55:36;;;;;;;28.97;26.67;;;14.90;55.10;;;;;;6150967;23;20421;-85
2023/03/01 11:58:20;;;;;;;26.80;24.40;;;14.60;56.40;;;;;;6150712;23;20415;-84
2023/03/01 12:01:04;;;;;;;25.87;23.87;;;14.50;55.90;;;;;;6151542;23;20411;-82
2023/03/01 12:03:43;;;;;;;27.33;25.03;;;15.20;55.60;;;;;;6151698;23;20481;-84
2023/03/01 12:06:40;;;;;;;25.97;23.93;;;14.60;55.30;;;;;;6151305;23;20954;-84
2023/03/01 12:09:20;;;;;;;26.47;24.37;;;14.50;55.80;;;;;;6127015;23;20414;-84
2023/03/01 12:12:12;;;;;;;26.80;24.50;;;14.60;57.10;;;;;;6151295;23;20410;-84
2023/03/01 12:15:01;;;;;;;27.97;25.90;;;14.40;56.10;;;;;;6150737;23;20953;-82
2023/03/01 12:17:50;;;;;;;27.33;25.13;;;14.90;55.80;;;;;;6150573;23;20421;-84
2023/03/01 12:20:23;;;;;;;25.90;23.70;;;15.10;55.10;;;;;;6150578;23;20865;-83
2023/03/01 12:23:06;;;;;;;27.10;24.67;;;15.30;55.60;;;;;;6150447;23;20446;-82
2023/03/01 12:25:38;;;;;;;26.27;24.17;;;14.70;55.30;;;;;;6150648;23;20415;-82
2023/03/01 12:28:38;;;;;;;25.30;23.20;;;14.60;55.50;;;;;;6150601;23;20728;-83
2023/03/01 12:31:28;;;;;;;26.70;24.70;;;14.70;54.70;;;;;;6097435;23;20431;-82
2023/03/01 12:34:00;;;;;;;28.37;25.53;;;15.20;54.50;;;;;;6149870;23;20438;-82
2023/03/01 12:36:45;;;;;;;24.30;22.50;;;15.20;54.50;;;;;;6150261;23;20910;-82
2023/03/01 12:39:24;;;;;;;26.67;24.70;;;14.90;54.40;;;;;;6149916;23;20418;-81
2023/03/01 12:42:02;;;;;;;26.07;24.10;;;14.50;55.30;;;;;;6150718;23;20410;-81
2023/03/01 12:44:42;;;;;;;25.30;23.37;;;14.20;55.70;;;;;;6150045;23;20449;-81
2023/03/01 12:47:20;;;;;;;24.23;22.57;;;13.80;56.10;;;;;;6149136;23;20427;-82
2023/03/01 12:49:52;;;;;;;27.60;25.40;;;14.00;57.00;;;;;;6150283;23;20796;-81
2023/03/01 12:52:27;;;;;;;24.53;22.43;;;14.20;56.80;;;;;;6149794;23;20418;-81
2023/03/01 12:54:58;;;;;;;25.07;23.07;;;14.50;56.10;;;;;;6150290;23;20410;-82
2023/03/01 12:57:38;;;;;;;24.97;23.03;;;15.00;56.70;;;;;;6149740;23;20711;-80
2023/03/01 13:00:23;;;;;;;26.27;23.80;;;14.90;55.90;;;;;;6150017;23;20414;-81
2023/03/01 13:02:59;;;;;;;27.23;24.97;;;14.70;55.40;;;;;;6149749;23;20458;-80
2023/03/01 13:05:38;;;;;;;25.97;23.87;;;14.30;55.60;;;;;;6149544;23;20740;-80
2023/03/01 13:08:10;;;;;;;25.40;22.80;;;14.80;56.10;;;;;;6149805;23;20468;-81
2023/03/01 13:10:44;;;;;;;25.83;23.83;;;14.40;56.20;;;;;;6152085;23;20411;-81
2023/03/01 13:13:21;;;;;;;26.10;24.07;;;14.30;56.60;;;;;;6157403;23;20402;-80
2023/03/01 13:15:49;;;;;;;26.47;24.13;;;13.90;57.70;;;;;;6158069;23;20695;-81
2023/03/01 13:18:33;;;;;;;23.17;21.30;;;14.60;57.30;;;;;;6155405;23;20414;-81
2023/03/01 13:21:02;;;;;;;24.93;22.80;;;14.50;57.00;;;;;;6149643;23;20429;-81
2023/03/01 13:23:33;;;;;;;23.70;21.90;;;15.00;56.60;;;;;;6150263;23;20450;-81
2023/03/01 13:26:11;;;;;;;22.30;20.60;;;14.70;55.80;;;;;;6150106;23;20410;-81
2023/03/01 13:28:47;;;;;;;24.47;22.20;;;14.50;56.40;;;;;;6149684;23;20750;-82
2023/03/01 13:31:53;;;;;;;25.20;23.30;;;13.80;56.50;;;;;;6149962;23;20505;-82
2023/03/01 13:34:41;;;;;;;24.27;22.30;;;13.90;57.40;;;;;;6148641;23;20715;-81
2023/03/01 13:37:20;;;;;;;23.93;21.93;;;13.90;57.10;;;;;;6149101;23;20398;-81
2023/03/01 13:39:46;;;;;;;25.80;23.60;;;14.00;57.20;;;;;;6149398;23;20406;-80
2023/03/01 13:42:39;;;;;;;26.33;24.23;;;13.50;57.60;;;;;;6149453;23;20407;-79
2023/03/01 13:45:18;;;;;;;26.47;24.07;;;12.70;58.20;;;;;;6149500;23;20406;-80
2023/03/01 13:47:48;;;;;;;26.60;24.50;;;12.20;59.50;;;;;;6149566;23;20476;-81
2023/03/01 13:50:21;;;;;;;27.07;24.67;;;11.50;61.10;;;;;;6150082;23;20449;-81
2023/03/01 13:52:51;;;;;;;26.40;24.00;;;10.90;64.00;;;;;;6149464;23;20454;-81
2023/03/01 13:55:22;;;;;;;26.43;24.13;;;10.50;65.60;;;;;;6149170;23;20906;-81
2023/03/01 13:57:53;;;;;;;26.60;24.30;;;10.20;67.20;;;;;;6148576;23;20433;-79
2023/03/01 14:00:31;;;;;;;30.70;27.67;;;9.90;69.50;;;;;;6149071;23;20410;-79
2023/03/01 14:03:04;;;;;;;27.53;25.03;;;9.70;70.90;;;;;;6149094;23;20957;-81
2023/03/01 14:05:31;;;;;;;27.43;24.87;;;9.70;72.20;;;;;;6149751;23;20411;-80
2023/03/01 14:07:57;;;;;;;29.07;26.43;;;9.80;72.70;;;;;;6149150;23;20441;-81
2023/03/01 14:10:30;;;;;;;27.90;25.30;;;9.60;73.30;;;;;;6149385;23;20797;-81
2023/03/01 14:13:05;;;;;;;25.73;23.33;;;9.50;73.90;;;;;;6148893;23;20455;-80
2023/03/01 14:15:40;;;;;;;29.10;26.40;;;9.40;74.40;;;;;;6148988;23;20429;-81
2023/03/01 14:18:12;;;;;;;26.73;24.10;;;9.50;74.50;;;;;;6148766;23;20900;-81
2023/03/01 14:20:42;;;;;;;28.63;26.13;;;9.50;75.10;;;;;;6149304;23;20410;-82
2023/03/01 14:23:12;;;;;;;27.43;25.03;;;9.60;75.20;;;;;;6149396;23;20453;-82
2023/03/01 14:25:46;;;;;;;29.53;26.70;;;9.60;75.40;;;;;;6149425;23;20925;-82
2023/03/01 14:28:17;;;;;;;27.03;24.20;;;9.40;76.20;;;;;;6149320;23;20415;-81
2023/03/01 14:30:48;;;;;;;28.00;25.53;;;9.40;76.00;;;;;;6149010;23;20786;-80
2023/03/01 14:33:23;;;;;;;25.50;23.40;;;9.40;75.50;;;;;;6149289;23;20438;-80
2023/03/01 14:35:55;;;;;;;26.03;23.67;;;9.50;76.40;;;;;;6149298;23;20450;-80
2023/03/01 14:38:24;;;;;;;27.00;24.20;;;9.50;74.60;;;;;;6148807;23;20407;-81
2023/03/01 14:40:55;;;;;;;26.60;24.20;;;9.30;75.30;;;;;;6148490;23;20425;-80
2023/03/01 14:43:24;;;;;;;25.83;23.40;;;9.30;75.20;;;;;;6148572;23;20453;-79
2023/03/01 14:45:52;;;;;;;27.53;24.90;;;9.10;75.60;;;;;;6148717;23;20866;-80
2023/03/01 14:48:20;;;;;;;26.10;24.07;;;9.20;76.60;;;;;;6149550;23;20414;-81
2023/03/01 14:50:47;;;;;;;26.63;24.23;;;9.30;76.20;;;;;;6149646;23;20418;-80
2023/03/01 14:53:19;;;;;;;25.33;23.07;;;9.30;76.70;;;;;;6149565;23;20403;-80
2023/03/01 14:55:49;;;;;;;26.10;23.67;;;9.40;77.20;;;;;;6148932;23;20407;-80
2023/03/01 14:58:19;;;;;;;27.63;25.27;;;9.40;76.10;;;;;;6148978;23;20414;-80
2023/03/01 15:00:50;;;;;;;26.67;24.30;;;9.40;76.80;;;;;;6149153;23;20436;-82
2023/03/01 15:03:25;;;;;;;27.60;24.83;;;9.40;77.50;;;;;;6148829;23;20948;-81
2023/03/01 15:05:52;;;;;;;26.20;23.60;;;9.40;77.00;;;;;;6148918;23;20433;-82
2023/03/01 15:08:21;;;;;;;26.00;23.50;;;9.40;77.40;;;;;;6149297;23;20489;-81
2023/03/01 15:11:00;;;;;;;24.23;21.77;;;9.30;77.00;;;;;;6151184;23;20605;-80
2023/03/01 15:13:30;;;;;;;27.83;25.43;;;9.30;77.10;;;;;;6150593;23;20418;-81
2023/03/01 15:16:05;;;;;;;23.83;21.57;;;9.20;78.30;;;;;;6150952;23;20443;-81
2023/03/01 15:18:33;;;;;;;27.10;24.57;;;9.20;77.90;;;;;;6151052;23;20448;-81
2023/03/01 15:21:08;;;;;;;28.93;25.30;;;9.10;77.60;;;;;;6151317;23;20518;-80
2023/03/01 15:23:37;;;;;;;26.37;23.87;;;9.10;77.80;;;;;;6150847;23;20802;-80
2023/03/01 15:26:04;;;;;;;25.60;23.27;;;9.10;78.10;;;;;;6151317;23;20418;-79
2023/03/01 15:28:34;;;;;;;25.90;23.53;;;9.10;78.50;;;;;;6152629;23;20417;-80
2023/03/01 15:31:04;;;;;;;26.47;23.90;;;9.10;78.10;;;;;;6152464;23;20432;-80
2023/03/01 15:33:37;;;;;;;25.33;23.03;;;9.20;78.10;;;;;;6152015;23;20441;-79
2023/03/01 15:36:25;;;;;;;25.53;23.13;;;9.10;78.70;;;;;;6151856;23;20914;-80
2023/03/01 15:38:56;;;;;;;24.47;22.37;;;9.10;78.70;;;;;;6151536;23;20407;-80
2023/03/01 15:41:25;;;;;;;27.07;24.57;;;9.10;78.70;;;;;;6152128;23;20759;-79
2023/03/01 15:43:54;;;;;;;25.37;23.03;;;9.00;78.20;;;;;;6151636;23;20534;-79
2023/03/01 15:46:27;;;;;;;26.20;23.87;;;8.90;78.40;;;;;;6151375;23;20446;-79
2023/03/01 15:48:57;;;;;;;28.10;25.40;;;8.90;79.50;;;;;;6151943;23;20437;-79
2023/03/01 15:51:30;;;;;;;25.87;23.37;;;8.90;79.20;;;;;;6151719;23;20415;-79
2023/03/01 15:54:01;;;;;;;27.70;24.90;;;8.80;79.60;;;;;;6151802;23;20465;-80
2023/03/01 15:56:28;;;;;;;27.40;24.80;;;8.70;80.00;;;;;;6151970;23;20446;-80
2023/03/01 15:58:59;;;;;;;25.03;22.63;;;8.70;79.90;;;;;;6151939;23;20466;-80
2023/03/01 16:01:26;;;;;;;28.17;25.33;;;8.70;80.20;;;;;;6151779;23;20749;-79
2023/03/01 16:03:53;;;;;;;26.30;23.87;;;8.60;79.70;;;;;;6151916;23;20635;-80
2023/03/01 16:06:20;;;;;;;26.23;23.77;;;8.60;79.80;;;;;;6152089;23;20411;-80
2023/03/01 16:08:46;;;;;;;26.87;24.10;;;8.50;79.80;;;;;;6151559;23;20433;-79
2023/03/01 16:11:18;;;;;;;26.47;23.83;;;8.50;80.50;;;;;;6151748;23;20414;-80
2023/03/01 16:13:45;;;;;;;27.90;25.27;;;8.40;80.20;;;;;;6151924;23;20607;-81
2023/03/01 16:16:15;;;;;;;26.30;23.90;;;8.40;80.50;;;;;;6151999;23;20414;-81
2023/03/01 16:18:42;;;;;;;26.20;23.80;;;8.30;80.50;;;;;;6151662;23;20406;-80
2023/03/01 16:21:13;;;;;;;28.50;25.90;;;8.30;80.60;;;;;;6152083;23;20763;-81
2023/03/01 16:23:40;;;;;;;26.60;24.10;;;8.20;81.10;;;;;;6151934;23;20749;-80
2023/03/01 16:26:06;;;;;;;32.13;24.43;;;8.20;80.70;;;;;;6152232;23;20423;-80
2023/03/01 16:28:34;;;;;;;25.47;22.80;;;8.10;80.60;;;;;;6152608;23;20422;-80
2023/03/01 16:31:01;;;;;;;25.90;23.47;;;8.10;80.70;;;;;;6152490;23;20407;-80
2023/03/01 16:33:28;;;;;;;31.80;28.33;;;8.10;80.70;;;;;;6151980;23;20450;-79
2023/03/01 16:35:55;;;;;;;25.27;22.90;;;8.00;80.80;;;;;;6151558;23;20438;-78
2023/03/01 16:38:21;;;;;;;26.63;24.03;;;8.00;81.30;;;;;;6151924;23;20434;-79
2023/03/01 16:40:50;;;;;;;25.87;23.23;;;7.90;81.10;;;;;;6159749;23;20418;-79
2023/03/01 16:43:16;;;;;;;24.53;22.33;;;7.90;81.50;;;;;;6153700;23;20413;-78
2023/03/01 16:45:46;;;;;;;25.33;22.63;;;7.80;81.90;;;;;;6151927;23;20451;-79
2023/03/01 16:48:13;;;;;;;26.20;23.70;;;7.70;82.40;;;;;;6151468;23;20414;-78
2023/03/01 16:50:40;;;;;;;25.63;23.00;;;7.80;82.00;;;;;;6151663;23;20414;-80
2023/03/01 16:53:07;;;;;;;25.43;23.10;;;7.70;82.10;;;;;;6150937;23;20434;-79
2023/03/01 16:55:33;;;;;;;25.20;22.73;;;7.70;83.00;;;;;;6151788;23;20411;-80
2023/03/01 16:58:00;;;;;;;25.37;22.97;;;7.50;83.10;;;;;;6151893;23;20465;-79
2023/03/01 17:00:27;;;;;;;25.80;23.10;;;7.50;84.00;;;;;;6151498;23;20425;-79
2023/03/01 17:02:55;;;;;;;26.00;23.40;;;7.40;84.20;;;;;;6151549;23;20727;-79
2023/03/01 17:05:23;;;;;;;26.57;24.03;;;7.30;84.90;;;;;;6151231;23;20453;-79
2023/03/01 17:07:50;;;;;;;26.27;23.73;;;7.20;85.60;;;;;;6151141;23;20934;-79
2023/03/01 17:10:17;;;;;;;24.00;21.30;;;7.10;86.20;;;;;;6151697;23;20782;-78
2023/03/01 17:12:43;;;;;;;24.20;21.70;;;7.10;87.10;;;;;;6151491;23;20418;-79
2023/03/01 17:15:11;;;;;;;27.30;24.50;;;6.90;87.30;;;;;;6151514;23;20413;-78
2023/03/01 17:17:39;;;;;;;23.77;21.37;;;6.80;88.80;;;;;;6151592;23;20422;-79
2023/03/01 17:20:09;;;;;;;24.60;22.20;;;6.70;89.50;;;;;;6151154;23;20925;-80
2023/03/01 17:22:36;;;;;;;24.90;22.43;;;6.60;90.00;;;;;;6151142;23;20407;-79
2023/03/01 17:25:03;;;;;;;23.57;21.33;;;6.60;90.50;;;;;;6151467;23;20450;-80
2023/03/01 17:27:34;;;;;;;24.07;21.57;;;6.70;90.30;;;;;;6151512;23;20413;-80
2023/03/01 17:30:00;;;;;;;24.13;21.73;;;6.80;90.00;;;;;;6151735;23;20407;-80
2023/03/01 17:32:27;;;;;;;25.27;22.77;;;6.80;90.00;;;;;;6151350;23;20406;-79
2023/03/01 17:34:54;;;;;;;26.40;23.70;;;6.70;90.40;;;;;;6150709;23;20454;-80
2023/03/01 17:37:22;;;;;;;26.53;23.83;;;6.70;90.80;;;;;;6150713;23;20886;-79
2023/03/01 17:39:48;;;;;;;30.40;24.30;;;6.60;91.10;;;;;;6151395;23;20902;-79
2023/03/01 17:42:15;;;;;;;24.43;22.00;;;6.40;91.80;;;;;;6150963;23;20938;-79
2023/03/01 17:44:42;;;;;;;25.07;22.47;;;6.30;92.60;;;;;;6151092;23;20790;-79
2023/03/01 17:47:10;;;;;;;24.30;21.93;;;6.30;93.20;;;;;;6151153;23;20419;-79
2023/03/01 17:49:37;;;;;;;28.90;23.13;;;6.20;93.40;;;;;;6151074;23;20783;-79
2023/03/01 17:52:04;;;;;;;24.50;21.90;;;6.00;94.00;;;;;;6151186;23;20474;-79
2023/03/01 17:54:32;;;;;;;25.00;22.30;;;5.90;94.70;;;;;;6151246;23;20411;-79
2023/03/01 17:56:59;;;;;;;27.43;24.73;;;5.70;95.20;;;;;;6151204;23;20417;-80
